Аэропорт: Хомутово. Южно-Сахалинск

ICAO: UHSS

METAR:
2018/05/20 19:00
UHSS 201900Z 11001MPS 9999 FEW033CB 02/00 Q1016 R01/CLRD70 NOSIG RMK MT OBSC QFE761/1015
METAR:
2018/05/20 18:22
TAF UHSS 201700Z 2018/2124 VRB01MPS 9999 BKN030 
      BECMG 2020/2022 17004MPS